sensor_id;sensor_type;location;lat;lon;timestamp;pressure;altitude;pressure_sealevel;temperature;humidity
26839;BME280;40088;51.214;6.786;2023-02-22T00:08:34;101229.25;;;17.37;52.99
26839;BME280;40088;51.214;6.786;2023-02-22T00:18:35;101226.66;;;17.36;52.94
26839;BME280;40088;51.214;6.786;2023-02-22T00:28:36;101214.63;;;17.37;52.95
26839;BME280;40088;51.214;6.786;2023-02-22T00:38:37;101219.25;;;17.36;52.97
26839;BME280;40088;51.214;6.786;2023-02-22T00:48:37;101206.53;;;17.35;52.79
26839;BME280;40088;51.214;6.786;2023-02-22T00:58:37;101194.66;;;17.35;52.89
26839;BME280;40088;51.214;6.786;2023-02-22T01:08:43;101188.09;;;17.36;52.68
26839;BME280;40088;51.214;6.786;2023-02-22T01:18:43;101171.56;;;17.36;52.73
26839;BME280;40088;51.214;6.786;2023-02-22T01:28:44;101172.63;;;17.35;52.81
26839;BME280;40088;51.214;6.786;2023-02-22T01:38:44;101165.22;;;17.35;52.66
26839;BME280;40088;51.214;6.786;2023-02-22T01:48:48;101144.22;;;17.34;52.75
26839;BME280;40088;51.214;6.786;2023-02-22T01:58:53;101146.97;;;17.34;52.67
26839;BME280;40088;51.214;6.786;2023-02-22T02:09:03;101138.72;;;17.34;52.64
26839;BME280;40088;51.214;6.786;2023-02-22T02:19:12;101130.47;;;17.34;52.53
26839;BME280;40088;51.214;6.786;2023-02-22T02:29:47;101125.16;;;17.33;52.50
26839;BME280;40088;51.214;6.786;2023-02-22T02:39:55;101114.97;;;17.33;52.59
26839;BME280;40088;51.214;6.786;2023-02-22T03:00:35;101087.44;;;17.33;52.53
26839;BME280;40088;51.214;6.786;2023-02-22T03:10:58;101089.34;;;17.33;52.65
26839;BME280;40088;51.214;6.786;2023-02-22T03:21:19;101081.94;;;17.33;52.63
26839;BME280;40088;51.214;6.786;2023-02-22T03:31:28;101086.59;;;17.33;52.70
26839;BME280;40088;51.214;6.786;2023-02-22T03:41:30;101091.03;;;17.34;52.40
26839;BME280;40088;51.214;6.786;2023-02-22T03:51:33;101088.28;;;17.34;52.67
26839;BME280;40088;51.214;6.786;2023-02-22T04:01:34;101084.69;;;17.33;52.42
26839;BME280;40088;51.214;6.786;2023-02-22T04:11:35;101085.34;;;17.35;52.54
26839;BME280;40088;51.214;6.786;2023-02-22T04:21:35;101084.69;;;17.33;52.54
26839;BME280;40088;51.214;6.786;2023-02-22T04:31:35;101067.94;;;17.35;52.63
26839;BME280;40088;51.214;6.786;2023-02-22T04:41:36;101056.94;;;17.35;52.58
26839;BME280;40088;51.214;6.786;2023-02-22T04:51:36;101052.47;;;17.34;52.50
26839;BME280;40088;51.214;6.786;2023-02-22T05:01:37;101041.47;;;17.34;52.63
26839;BME280;40088;51.214;6.786;2023-02-22T05:11:37;101034.91;;;17.35;52.53
26839;BME280;40088;51.214;6.786;2023-02-22T05:21:38;101034.91;;;17.35;52.53
26839;BME280;40088;51.214;6.786;2023-02-22T05:31:39;101019.44;;;17.34;52.60
26839;BME280;40088;51.214;6.786;2023-02-22T05:41:40;101001.00;;;17.34;52.67
26839;BME280;40088;51.214;6.786;2023-02-22T05:51:41;101010.78;;;17.37;52.39
26839;BME280;40088;51.214;6.786;2023-02-22T06:01:41;100994.44;;;17.35;52.50
26839;BME280;40088;51.214;6.786;2023-02-22T06:11:41;100995.28;;;17.36;52.42
26839;BME280;40088;51.214;6.786;2023-02-22T06:21:48;100994.44;;;17.35;52.40
26839;BME280;40088;51.214;6.786;2023-02-22T06:31:49;100984.25;;;17.36;52.42
26839;BME280;40088;51.214;6.786;2023-02-22T06:41:49;100984.25;;;17.36;52.49
26839;BME280;40088;51.214;6.786;2023-02-22T06:51:50;100994.25;;;17.37;52.42
26839;BME280;40088;51.214;6.786;2023-02-22T07:01:50;100995.28;;;17.36;52.43
26839;BME280;40088;51.214;6.786;2023-02-22T07:11:51;100987.03;;;17.36;52.32
26839;BME280;40088;51.214;6.786;2023-02-22T07:21:51;100971.53;;;17.35;52.25
26839;BME280;40088;51.214;6.786;2023-02-22T07:31:58;100970.50;;;17.36;52.55
26839;BME280;40088;51.214;6.786;2023-02-22T07:41:58;100970.50;;;17.36;52.16
26839;BME280;40088;51.214;6.786;2023-02-22T07:51:58;100971.34;;;17.36;52.14
26839;BME280;40088;51.214;6.786;2023-02-22T08:01:58;100961.22;;;17.37;52.22
26839;BME280;40088;51.214;6.786;2023-02-22T08:11:59;100948.28;;;17.37;52.20
26839;BME280;40088;51.214;6.786;2023-02-22T08:21:59;100941.94;;;17.37;52.33
26839;BME280;40088;51.214;6.786;2023-02-22T08:31:59;100933.66;;;17.37;52.47
26839;BME280;40088;51.214;6.786;2023-02-22T08:42:00;100927.09;;;17.38;52.29
26839;BME280;40088;51.214;6.786;2023-02-22T08:52:00;100917.13;;;17.37;52.25
26839;BME280;40088;51.214;6.786;2023-02-22T09:02:00;100922.44;;;17.38;52.26
26839;BME280;40088;51.214;6.786;2023-02-22T09:12:02;100919.69;;;17.38;52.28
26839;BME280;40088;51.214;6.786;2023-02-22T09:22:03;100926.91;;;17.39;52.25
26839;BME280;40088;51.214;6.786;2023-02-22T09:32:03;100922.44;;;17.38;52.35
26839;BME280;40088;51.214;6.786;2023-02-22T09:42:08;100912.47;;;17.37;52.44
26839;BME280;40088;51.214;6.786;2023-02-22T09:52:19;100909.50;;;17.39;52.46
26839;BME280;40088;51.214;6.786;2023-02-22T10:02:26;100904.84;;;17.39;52.60
26839;BME280;40088;51.214;6.786;2023-02-22T10:23:07;100890.03;;;17.40;52.54
26839;BME280;40088;51.214;6.786;2023-02-22T10:33:28;100875.19;;;17.41;52.58
26839;BME280;40088;51.214;6.786;2023-02-22T10:43:30;100869.03;;;17.39;52.79
26839;BME280;40088;51.214;6.786;2023-02-22T10:53:31;100856.97;;;17.40;52.65
26839;BME280;40088;51.214;6.786;2023-02-22T11:03:31;100846.81;;;17.41;52.77
26839;BME280;40088;51.214;6.786;2023-02-22T11:13:41;100842.16;;;17.41;52.79
26839;BME280;40088;51.214;6.786;2023-02-22T11:23:42;100841.28;;;17.41;52.91
26839;BME280;40088;51.214;6.786;2023-02-22T11:33:56;100833.25;;;17.39;53.02
26839;BME280;40088;51.214;6.786;2023-02-22T11:44:27;100833.03;;;17.41;53.05
26839;BME280;40088;51.214;6.786;2023-02-22T11:54:49;100817.34;;;17.41;53.12
26839;BME280;40088;51.214;6.786;2023-02-22T12:25:39;100797.91;;;17.43;53.01
26839;BME280;40088;51.214;6.786;2023-02-22T12:35:44;100807.22;;;17.42;53.17
26839;BME280;40088;51.214;6.786;2023-02-22T12:56:02;100796.00;;;17.43;53.24
26839;BME280;40088;51.214;6.786;2023-02-22T13:27:00;100785.81;;;17.44;53.23
26839;BME280;40088;51.214;6.786;2023-02-22T13:57:44;100765.47;;;17.45;53.37
26839;BME280;40088;51.214;6.786;2023-02-22T14:07:48;100768.03;;;17.47;53.43
26839;BME280;40088;51.214;6.786;2023-02-22T14:18:03;100779.47;;;17.43;53.37
26839;BME280;40088;51.214;6.786;2023-02-22T14:28:07;100765.47;;;17.45;53.52
26839;BME280;40088;51.214;6.786;2023-02-22T14:38:15;100763.41;;;17.47;53.30
26839;BME280;40088;51.214;6.786;2023-02-22T14:48:35;100775.44;;;17.46;53.43
26839;BME280;40088;51.214;6.786;2023-02-22T14:58:51;100778.19;;;17.46;53.57
26839;BME280;40088;51.214;6.786;2023-02-22T15:09:16;100763.41;;;17.47;53.58
26839;BME280;40088;51.214;6.786;2023-02-22T15:19:30;100774.41;;;17.47;53.57
26839;BME280;40088;51.214;6.786;2023-02-22T15:29:37;100770.59;;;17.48;53.61
26839;BME280;40088;51.214;6.786;2023-02-22T15:39:38;100783.31;;;17.49;53.55
26839;BME280;40088;51.214;6.786;2023-02-22T15:49:43;100792.63;;;17.48;53.53
26839;BME280;40088;51.214;6.786;2023-02-22T15:59:50;100794.72;;;17.46;53.70
26839;BME280;40088;51.214;6.786;2023-02-22T16:09:52;100796.44;;;17.47;53.69
26839;BME280;40088;51.214;6.786;2023-02-22T16:19:53;100804.50;;;17.49;53.59
26839;BME280;40088;51.214;6.786;2023-02-22T16:30:33;100813.84;;;17.48;53.66
26839;BME280;40088;51.214;6.786;2023-02-22T16:40:40;100815.53;;;17.49;53.63
26839;BME280;40088;51.214;6.786;2023-02-22T16:50:43;100816.59;;;17.48;53.65
26839;BME280;40088;51.214;6.786;2023-02-22T17:00:44;100823.78;;;17.49;53.60
26839;BME280;40088;51.214;6.786;2023-02-22T17:10:48;100829.31;;;17.49;53.64
26839;BME280;40088;51.214;6.786;2023-02-22T17:20:51;100836.50;;;17.50;53.65
26839;BME280;40088;51.214;6.786;2023-02-22T17:30:53;100846.69;;;17.49;53.64
26839;BME280;40088;51.214;6.786;2023-02-22T17:40:56;100858.75;;;17.48;53.71
26839;BME280;40088;51.214;6.786;2023-02-22T17:50:57;100860.47;;;17.49;53.66
26839;BME280;40088;51.214;6.786;2023-02-22T18:00:57;100863.22;;;17.49;53.74
26839;BME280;40088;51.214;6.786;2023-02-22T18:11:02;100873.38;;;17.49;53.81
26839;BME280;40088;51.214;6.786;2023-02-22T18:21:04;100872.31;;;17.50;53.79
26839;BME280;40088;51.214;6.786;2023-02-22T18:31:10;100878.69;;;17.50;53.64
26839;BME280;40088;51.214;6.786;2023-02-22T18:41:14;100896.06;;;17.51;53.72
26839;BME280;40088;51.214;6.786;2023-02-22T18:51:16;100889.72;;;17.50;53.74
26839;BME280;40088;51.214;6.786;2023-02-22T19:01:17;100889.72;;;17.50;53.95
26839;BME280;40088;51.214;6.786;2023-02-22T19:11:20;100888.66;;;17.51;53.71
26839;BME280;40088;51.214;6.786;2023-02-22T19:21:20;100895.22;;;17.50;53.78
26839;BME280;40088;51.214;6.786;2023-02-22T19:31:22;100904.34;;;17.51;53.75
26839;BME280;40088;51.214;6.786;2023-02-22T19:41:27;100910.69;;;17.51;53.86
26839;BME280;40088;51.214;6.786;2023-02-22T19:51:29;100913.66;;;17.50;53.71
26839;BME280;40088;51.214;6.786;2023-02-22T20:01:31;100918.31;;;17.49;53.88
26839;BME280;40088;51.214;6.786;2023-02-22T20:11:33;100920.00;;;17.50;53.79
26839;BME280;40088;51.214;6.786;2023-02-22T20:21:34;100917.25;;;17.50;53.75
26839;BME280;40088;51.214;6.786;2023-02-22T20:31:36;100928.28;;;17.50;53.85
26839;BME280;40088;51.214;6.786;2023-02-22T20:41:37;100926.38;;;17.51;53.74
26839;BME280;40088;51.214;6.786;2023-02-22T20:51:38;100923.63;;;17.51;53.87
26839;BME280;40088;51.214;6.786;2023-02-22T21:01:39;100936.53;;;17.50;53.86
26839;BME280;40088;51.214;6.786;2023-02-22T21:11:41;100934.84;;;17.49;53.82
26839;BME280;40088;51.214;6.786;2023-02-22T21:21:41;100928.28;;;17.50;53.94
26839;BME280;40088;51.214;6.786;2023-02-22T21:31:42;100934.47;;;17.52;53.93
26839;BME280;40088;51.214;6.786;2023-02-22T21:41:44;100928.28;;;17.50;53.88
26839;BME280;40088;51.214;6.786;2023-02-22T21:51:45;100931.88;;;17.51;53.94
26839;BME280;40088;51.214;6.786;2023-02-22T22:01:47;100938.25;;;17.51;54.00
26839;BME280;40088;51.214;6.786;2023-02-22T22:11:59;100936.34;;;17.52;54.04
26839;BME280;40088;51.214;6.786;2023-02-22T22:22:00;100931.03;;;17.50;53.92
26839;BME280;40088;51.214;6.786;2023-02-22T22:32:01;100929.34;;;17.49;53.99
26839;BME280;40088;51.214;6.786;2023-02-22T22:42:02;100930.81;;;17.52;54.07
26839;BME280;40088;51.214;6.786;2023-02-22T22:52:02;100925.53;;;17.50;54.13
26839;BME280;40088;51.214;6.786;2023-02-22T23:02:03;100934.63;;;17.51;54.18
26839;BME280;40088;51.214;6.786;2023-02-22T23:12:08;100929.34;;;17.49;54.16
26839;BME280;40088;51.214;6.786;2023-02-22T23:22:14;100927.63;;;17.48;54.27
26839;BME280;40088;51.214;6.786;2023-02-22T23:32:14;100928.28;;;17.50;54.18
26839;BME280;40088;51.214;6.786;2023-02-22T23:42:14;100932.09;;;17.49;54.03
26839;BME280;40088;51.214;6.786;2023-02-22T23:52:15;100933.31;;;17.47;54.19
